Time;durP1;ratioP1;P1;durP2;ratioP2;P2;SDS_P1;SDS_P2;PMS_P1;PMS_P2;Temp;Humidity;BMP_temperature;BMP_pressure;BME280_temperature;BME280_humidity;BME280_pressure;Samples;Min_cycle;Max_cycle;Signal;HPM_P1;HPM_P2
2022/04/03 00:00:35;;;;;;;6.67;2.80;;;-2.90;74.00;;;;;;5061949;28;20048;-67
2022/04/03 00:03:02;;;;;;;4.68;2.83;;;-2.80;74.30;;;;;;5036098;28;20287;-66
2022/04/03 00:05:28;;;;;;;5.35;2.97;;;-2.80;74.80;;;;;;5060976;28;21125;-67
2022/04/03 00:07:56;;;;;;;4.87;2.50;;;-2.70;75.70;;;;;;5063820;28;20055;-67
2022/04/03 00:10:22;;;;;;;9.27;2.83;;;-2.60;75.90;;;;;;5049011;28;20046;-67
2022/04/03 00:12:49;;;;;;;6.60;3.38;;;-2.60;75.40;;;;;;5049765;28;20124;-67
2022/04/03 00:15:15;;;;;;;5.18;3.47;;;-2.50;75.20;;;;;;5070038;28;20511;-65
2022/04/03 00:17:41;;;;;;;7.60;4.00;;;-2.50;75.20;;;;;;5069129;28;20083;-67
2022/04/03 00:20:08;;;;;;;7.40;2.95;;;-2.40;75.30;;;;;;5065139;28;20127;-66
2022/04/03 00:22:34;;;;;;;10.30;3.33;;;-2.30;75.40;;;;;;5068040;28;20795;-67
2022/04/03 00:25:00;;;;;;;11.05;3.50;;;-2.30;75.80;;;;;;5048018;28;20040;-67
2022/04/03 00:27:26;;;;;;;7.55;3.45;;;-2.20;75.90;;;;;;5049715;28;20071;-67
2022/04/03 00:29:52;;;;;;;4.83;2.77;;;-2.20;75.60;;;;;;5051416;28;20075;-66
2022/04/03 00:32:19;;;;;;;6.80;2.90;;;-2.10;75.40;;;;;;5018335;28;20432;-66
2022/04/03 00:34:46;;;;;;;7.82;3.30;;;-2.00;75.70;;;;;;5034670;28;20103;-67
2022/04/03 00:37:11;;;;;;;6.55;3.25;;;-1.90;75.80;;;;;;5062704;28;20126;-67
2022/04/03 00:39:38;;;;;;;10.47;3.57;;;-1.90;75.80;;;;;;5053253;28;20119;-66
2022/04/03 00:42:08;;;;;;;7.70;3.20;;;-1.80;76.50;;;;;;5062629;28;20036;-66
2022/04/03 00:44:35;;;;;;;6.60;2.17;;;-1.70;76.40;;;;;;5062372;28;20939;-66
2022/04/03 00:47:03;;;;;;;4.18;1.92;;;-1.70;76.30;;;;;;5062725;28;20048;-66
2022/04/03 00:49:29;;;;;;;5.28;1.90;;;-1.60;76.40;;;;;;5050240;28;20046;-66
2022/04/03 00:51:55;;;;;;;3.35;2.47;;;-1.60;76.40;;;;;;5051578;28;20049;-67
2022/04/03 00:54:21;;;;;;;4.32;2.10;;;-1.50;77.10;;;;;;5062882;28;20044;-67
2022/04/03 00:56:46;;;;;;;7.40;2.30;;;-1.50;77.30;;;;;;5048737;28;20115;-66
2022/04/03 00:59:13;;;;;;;3.17;1.93;;;-1.50;77.00;;;;;;5044387;28;20032;-67
2022/04/03 01:01:43;;;;;;;5.45;2.13;;;-1.40;77.10;;;;;;5039226;28;20044;-67
2022/04/03 01:04:10;;;;;;;3.60;1.83;;;-1.40;77.30;;;;;;5063888;28;20036;-66
2022/04/03 01:06:36;;;;;;;4.75;2.20;;;-1.30;77.00;;;;;;5058526;28;20040;-67
2022/04/03 01:09:02;;;;;;;2.90;1.95;;;-1.30;76.80;;;;;;5043760;28;20037;-67
2022/04/03 01:11:29;;;;;;;3.67;2.05;;;-1.30;76.70;;;;;;5063828;28;20416;-66
2022/04/03 01:13:54;;;;;;;3.22;1.70;;;-1.20;76.90;;;;;;5038332;28;20114;-67
2022/04/03 01:16:20;;;;;;;4.43;2.00;;;-1.20;76.50;;;;;;5068007;28;20044;-66
2022/04/03 01:18:46;;;;;;;3.95;1.80;;;-1.20;76.50;;;;;;5069747;28;20077;-68
2022/04/03 01:21:13;;;;;;;3.63;1.50;;;-1.10;76.80;;;;;;5033048;28;20050;-67
2022/04/03 01:23:39;;;;;;;2.30;1.45;;;-1.10;77.00;;;;;;5057424;28;20164;-67
2022/04/03 01:26:05;;;;;;;5.55;1.42;;;-1.00;76.50;;;;;;5056829;28;20511;-66
2022/04/03 01:28:31;;;;;;;3.40;1.60;;;-1.00;76.30;;;;;;5057562;28;20040;-66
2022/04/03 01:30:57;;;;;;;3.30;1.33;;;-1.00;76.20;;;;;;5060562;28;20044;-67
2022/04/03 01:33:23;;;;;;;3.03;1.87;;;-0.90;75.60;;;;;;5037791;28;20157;-67
2022/04/03 01:35:49;;;;;;;4.03;1.50;;;-0.80;75.70;;;;;;5064682;28;20321;-66
2022/04/03 01:38:14;;;;;;;2.58;1.40;;;-0.70;75.10;;;;;;5054157;28;20114;-67
2022/04/03 01:40:41;;;;;;;3.77;1.40;;;-0.60;74.90;;;;;;5062997;28;20535;-67
2022/04/03 01:43:09;;;;;;;4.20;1.50;;;-0.50;74.70;;;;;;5036914;28;20067;-67
2022/04/03 01:45:39;;;;;;;4.53;1.45;;;-0.40;74.60;;;;;;5059846;28;20051;-66
2022/04/03 01:48:06;;;;;;;3.60;1.20;;;-0.30;74.50;;;;;;5048281;28;20048;-67
2022/04/03 01:50:32;;;;;;;2.88;1.50;;;-0.30;74.20;;;;;;5052300;28;20060;-66
2022/04/03 01:52:58;;;;;;;5.10;1.48;;;-0.20;74.10;;;;;;5052773;28;20092;-66
2022/04/03 01:55:25;;;;;;;2.90;1.65;;;-0.20;73.90;;;;;;5052672;28;20037;-66
2022/04/03 01:57:52;;;;;;;4.03;1.42;;;-0.20;73.90;;;;;;5047995;28;20047;-67
2022/04/03 02:00:19;;;;;;;3.22;1.23;;;-0.20;74.00;;;;;;5047517;28;20047;-67
2022/04/03 02:02:45;;;;;;;2.75;1.20;;;-0.20;74.30;;;;;;5062184;28;20055;-67
2022/04/03 02:05:11;;;;;;;2.30;1.27;;;-0.10;74.20;;;;;;5058090;28;20068;-67
2022/04/03 02:07:38;;;;;;;2.67;1.30;;;-0.10;74.90;;;;;;5033232;28;20036;-66
2022/04/03 02:10:09;;;;;;;3.72;1.50;;;-0.10;74.50;;;;;;5034421;28;20097;-66
2022/04/03 02:12:42;;;;;;;4.22;1.30;;;-0.20;74.20;;;;;;5055130;28;20563;-67
2022/04/03 02:15:10;;;;;;;3.78;1.50;;;-0.10;74.30;;;;;;5045515;28;20446;-68
2022/04/03 02:17:36;;;;;;;3.33;1.42;;;-0.10;74.40;;;;;;5043424;28;20452;-66
2022/04/03 02:20:03;;;;;;;3.07;1.40;;;-0.20;74.80;;;;;;5064528;28;20068;-66
2022/04/03 02:22:29;;;;;;;2.95;1.20;;;-0.20;74.90;;;;;;5038659;28;20098;-66
2022/04/03 02:24:54;;;;;;;3.43;1.60;;;-0.20;74.60;;;;;;5009491;28;20040;-68
2022/04/03 02:27:20;;;;;;;3.57;1.37;;;-0.30;74.50;;;;;;5049214;28;20048;-67
2022/04/03 02:29:46;;;;;;;2.70;1.30;;;-0.30;74.20;;;;;;5035326;28;20047;-66
2022/04/03 02:32:11;;;;;;;2.67;1.27;;;-0.40;74.10;;;;;;5043482;28;20116;-67
2022/04/03 02:34:37;;;;;;;2.93;1.30;;;-0.50;74.30;;;;;;5067033;28;20504;-67
2022/04/03 02:37:03;;;;;;;3.07;1.47;;;-0.60;74.10;;;;;;5041053;28;20113;-67
2022/04/03 02:39:28;;;;;;;3.00;1.37;;;-0.70;74.00;;;;;;5043829;28;20042;-66
2022/04/03 02:41:54;;;;;;;4.23;1.40;;;-0.80;74.00;;;;;;5040016;28;20036;-66
2022/04/03 02:44:20;;;;;;;3.23;1.70;;;-0.90;73.90;;;;;;5064888;28;20048;-66
2022/04/03 02:46:46;;;;;;;3.97;1.57;;;-1.00;74.40;;;;;;5015356;28;20041;-66
2022/04/03 02:49:11;;;;;;;3.03;1.50;;;-1.10;75.30;;;;;;5056703;28;20032;-66
2022/04/03 02:51:37;;;;;;;7.10;1.90;;;-1.20;75.20;;;;;;5038190;28;20129;-67
2022/04/03 02:54:04;;;;;;;5.37;2.20;;;-1.30;75.00;;;;;;5061671;28;20043;-67
2022/04/03 02:56:30;;;;;;;2.83;1.67;;;-1.40;74.90;;;;;;5035041;28;20032;-67
2022/04/03 02:58:55;;;;;;;3.90;1.40;;;-1.50;74.80;;;;;;5042712;28;20086;-66
2022/04/03 03:01:22;;;;;;;2.33;1.07;;;-1.60;74.80;;;;;;5050916;28;20097;-67
2022/04/03 03:03:48;;;;;;;4.18;1.40;;;-1.60;74.60;;;;;;5059600;28;20051;-66
2022/04/03 03:06:17;;;;;;;2.83;1.30;;;-1.70;75.60;;;;;;5053029;28;20036;-66
2022/04/03 03:08:42;;;;;;;2.40;1.45;;;-1.70;75.20;;;;;;5061347;28;20040;-67
2022/04/03 03:11:09;;;;;;;2.70;1.57;;;-1.80;75.40;;;;;;5052877;28;20592;-67
2022/04/03 03:13:35;;;;;;;2.88;1.42;;;-1.80;75.30;;;;;;5036066;28;20374;-67
2022/04/03 03:16:01;;;;;;;4.03;1.60;;;-1.90;75.60;;;;;;5031973;28;20090;-67
2022/04/03 03:18:26;;;;;;;2.73;1.50;;;-1.90;75.60;;;;;;5053608;28;20076;-67
2022/04/03 03:20:52;;;;;;;4.00;1.50;;;-2.00;75.80;;;;;;5046785;28;20040;-67
2022/04/03 03:23:18;;;;;;;3.40;1.40;;;-2.00;77.10;;;;;;5043712;28;20093;-66
2022/04/03 03:25:45;;;;;;;3.73;1.50;;;-2.10;76.20;;;;;;5030941;28;20052;-66
2022/04/03 03:28:11;;;;;;;4.68;1.60;;;-2.10;77.10;;;;;;5054407;28;20135;-67
2022/04/03 03:30:38;;;;;;;2.38;1.40;;;-2.10;77.30;;;;;;5058844;28;20048;-67
2022/04/03 03:33:05;;;;;;;2.08;1.48;;;-2.20;77.10;;;;;;5055084;28;20602;-67
2022/04/03 03:35:31;;;;;;;3.15;1.50;;;-2.10;78.00;;;;;;5063071;28;20166;-68
2022/04/03 03:37:59;;;;;;;4.30;1.92;;;-2.10;77.80;;;;;;5015782;28;20771;-67
2022/04/03 03:40:25;;;;;;;4.40;1.65;;;-2.10;77.10;;;;;;5041848;28;20181;-66
2022/04/03 03:42:50;;;;;;;2.83;1.30;;;-2.00;77.20;;;;;;5059975;28;20060;-67
2022/04/03 03:45:16;;;;;;;4.40;1.83;;;-2.00;76.50;;;;;;5049529;28;20048;-66
2022/04/03 03:47:46;;;;;;;2.92;1.27;;;-2.00;76.00;;;;;;5069586;28;20055;-66
2022/04/03 03:50:14;;;;;;;4.88;1.52;;;-2.00;76.10;;;;;;5063858;28;20071;-67
2022/04/03 03:52:40;;;;;;;3.45;1.73;;;-2.00;75.90;;;;;;5068757;28;20052;-67
2022/04/03 03:55:06;;;;;;;2.30;1.40;;;-2.00;75.70;;;;;;5041707;28;20136;-67
2022/04/03 03:57:32;;;;;;;2.47;1.55;;;-2.00;75.70;;;;;;5062493;28;20044;-66
2022/04/03 03:59:58;;;;;;;4.07;1.80;;;-2.10;75.70;;;;;;5038906;28;20452;-67
2022/04/03 04:02:24;;;;;;;2.50;1.27;;;-2.10;75.60;;;;;;5059138;28;20044;-66
2022/04/03 04:04:49;;;;;;;4.27;1.60;;;-2.10;75.60;;;;;;5038580;28;20045;-67
2022/04/03 04:07:15;;;;;;;4.33;1.30;;;-2.20;75.30;;;;;;5047981;28;20040;-66
2022/04/03 04:09:41;;;;;;;3.67;1.63;;;-2.20;75.30;;;;;;5039533;28;20391;-67
2022/04/03 04:12:09;;;;;;;2.88;1.38;;;-2.20;75.40;;;;;;5064998;28;20543;-67
2022/04/03 04:14:36;;;;;;;3.75;1.17;;;-2.20;75.30;;;;;;5050050;28;20400;-66
2022/04/03 04:17:03;;;;;;;4.50;2.03;;;-2.20;75.40;;;;;;5040518;28;20493;-66
2022/04/03 04:19:29;;;;;;;2.50;1.30;;;-2.30;75.30;;;;;;5061010;28;20123;-66
2022/04/03 04:21:56;;;;;;;5.25;1.30;;;-2.30;76.10;;;;;;5054379;28;20039;-66
2022/04/03 04:24:21;;;;;;;3.17;1.10;;;-2.20;76.40;;;;;;5034929;28;20048;-66
2022/04/03 04:26:47;;;;;;;2.20;1.20;;;-2.20;76.30;;;;;;5064269;28;20047;-66
2022/04/03 04:29:13;;;;;;;4.07;1.20;;;-2.30;76.10;;;;;;5056530;28;20044;-66
2022/04/03 04:31:38;;;;;;;3.10;1.40;;;-2.30;75.80;;;;;;5048757;28;20035;-66
2022/04/03 04:34:04;;;;;;;2.63;0.97;;;-2.30;75.70;;;;;;5061083;28;20904;-66
2022/04/03 04:36:30;;;;;;;3.77;1.13;;;-2.30;75.60;;;;;;5053167;28;20043;-67
2022/04/03 04:38:57;;;;;;;4.13;0.90;;;-2.30;75.40;;;;;;5064736;28;20032;-67
2022/04/03 04:41:23;;;;;;;8.23;1.27;;;-2.30;76.00;;;;;;5049125;28;20047;-67
2022/04/03 04:43:49;;;;;;;2.90;0.80;;;-2.30;76.10;;;;;;5045508;28;20169;-66
2022/04/03 04:46:15;;;;;;;3.47;0.80;;;-2.30;76.20;;;;;;5058685;28;20131;-66
2022/04/03 04:48:41;;;;;;;2.87;0.80;;;-2.30;75.90;;;;;;5041228;28;20044;-66
2022/04/03 04:51:06;;;;;;;4.13;0.87;;;-2.30;76.50;;;;;;5039791;28;20124;-66
2022/04/03 04:53:32;;;;;;;3.70;0.90;;;-2.30;76.20;;;;;;5031325;28;20032;-66
2022/04/03 04:55:58;;;;;;;3.47;0.90;;;-2.30;77.10;;;;;;5046881;28;20120;-66
2022/04/03 04:58:23;;;;;;;2.43;0.70;;;-2.30;76.90;;;;;;5061961;28;20036;-66
2022/04/03 05:00:49;;;;;;;3.90;1.13;;;-2.30;76.60;;;;;;5050304;28;20040;-66
2022/04/03 05:03:15;;;;;;;2.50;0.50;;;-2.30;77.10;;;;;;5050912;28;20046;-65
2022/04/03 05:05:40;;;;;;;2.93;0.70;;;-2.30;77.00;;;;;;5045850;28;20040;-65
2022/04/03 05:08:07;;;;;;;5.00;0.63;;;-2.30;77.00;;;;;;5047679;28;20437;-65
2022/04/03 05:10:33;;;;;;;2.35;0.85;;;-2.30;77.00;;;;;;5045516;28;20574;-65
2022/04/03 05:12:59;;;;;;;6.43;0.93;;;-2.20;78.20;;;;;;5047427;28;20085;-65
2022/04/03 05:15:28;;;;;;;4.32;0.70;;;-2.10;78.30;;;;;;5062950;28;20048;-65
2022/04/03 05:17:54;;;;;;;1.92;0.70;;;-2.00;77.80;;;;;;5062396;28;20037;-65
2022/04/03 05:20:20;;;;;;;3.53;0.60;;;-1.80;78.10;;;;;;5039461;28;20048;-65
2022/04/03 05:22:46;;;;;;;3.00;0.70;;;-1.70;78.20;;;;;;5034991;28;20397;-65
2022/04/03 05:25:12;;;;;;;2.93;0.80;;;-1.60;77.70;;;;;;5050285;28;20049;-65
2022/04/03 05:27:42;;;;;;;4.28;0.73;;;-1.60;77.30;;;;;;5042113;28;20658;-65
2022/04/03 05:30:09;;;;;;;2.15;0.70;;;-1.50;76.80;;;;;;5045424;28;20041;-65
2022/04/03 05:32:36;;;;;;;5.95;0.68;;;-1.50;76.80;;;;;;5045709;28;20055;-65
2022/04/03 05:35:03;;;;;;;1.77;0.95;;;-1.50;76.40;;;;;;5039982;28;20044;-65
2022/04/03 05:37:30;;;;;;;3.88;0.80;;;-1.50;76.40;;;;;;5063819;28;21938;-65
2022/04/03 05:39:55;;;;;;;2.20;0.70;;;-1.50;76.30;;;;;;5043125;28;20040;-65
2022/04/03 05:42:22;;;;;;;2.50;0.60;;;-1.50;76.30;;;;;;5060628;28;20046;-65
2022/04/03 05:44:48;;;;;;;2.97;0.70;;;-1.50;76.30;;;;;;5039546;28;20123;-65
2022/04/03 05:47:17;;;;;;;3.80;0.80;;;-1.50;76.50;;;;;;5044890;28;20052;-65
2022/04/03 05:49:44;;;;;;;2.95;0.70;;;-1.50;76.50;;;;;;5052821;28;20044;-65
2022/04/03 05:52:10;;;;;;;5.05;0.80;;;-1.50;76.40;;;;;;5057441;28;20488;-65
2022/04/03 05:54:36;;;;;;;3.57;1.13;;;-1.50;76.40;;;;;;5062352;28;20052;-66
2022/04/03 05:57:02;;;;;;;4.13;0.80;;;-1.50;76.50;;;;;;5055385;28;20051;-66
2022/04/03 05:59:27;;;;;;;5.03;0.60;;;-1.40;76.30;;;;;;5042460;28;20079;-66
2022/04/03 06:01:53;;;;;;;6.90;0.70;;;-1.40;76.60;;;;;;5061458;28;20057;-65
2022/04/03 06:04:19;;;;;;;5.67;0.83;;;-1.40;76.50;;;;;;5066569;28;20040;-65
2022/04/03 06:06:44;;;;;;;2.03;0.53;;;-1.30;76.60;;;;;;5024159;28;20036;-65
2022/04/03 06:09:10;;;;;;;2.30;0.67;;;-1.20;76.70;;;;;;5053973;28;20484;-65
2022/04/03 06:11:36;;;;;;;2.93;0.60;;;-1.20;76.70;;;;;;5059239;28;20361;-65
2022/04/03 06:14:02;;;;;;;2.90;0.70;;;-1.10;76.60;;;;;;5029959;28;20063;-65
2022/04/03 06:16:28;;;;;;;4.70;0.60;;;-1.00;76.50;;;;;;5059163;28;20036;-66
2022/04/03 06:18:54;;;;;;;6.43;1.00;;;-0.90;76.90;;;;;;5042332;28;20286;-66
2022/04/03 06:21:20;;;;;;;4.60;1.80;;;-0.80;77.20;;;;;;5046406;28;20856;-66
2022/04/03 06:23:46;;;;;;;2.50;1.10;;;-0.60;77.70;;;;;;5055350;28;20047;-66
2022/04/03 06:26:12;;;;;;;6.50;1.37;;;-0.40;77.10;;;;;;5057527;28;20357;-66
2022/04/03 06:28:38;;;;;;;3.13;0.90;;;-0.10;77.60;;;;;;5038305;28;20040;-66
2022/04/03 06:31:04;;;;;;;2.10;0.73;;;0.10;77.30;;;;;;5059397;28;20040;-66
2022/04/03 06:33:30;;;;;;;3.85;0.90;;;0.30;77.40;;;;;;5056829;28;21083;-66
2022/04/03 06:35:56;;;;;;;3.83;0.98;;;0.50;77.80;;;;;;5058798;28;20360;-66
2022/04/03 06:38:22;;;;;;;3.70;0.77;;;0.60;77.60;;;;;;5062960;28;20044;-66
2022/04/03 06:40:55;;;;;;;5.43;0.70;;;0.80;77.20;;;;;;5046178;28;20751;-66
2022/04/03 06:43:24;;;;;;;3.45;1.13;;;0.90;77.30;;;;;;5062183;28;20036;-66
2022/04/03 06:45:50;;;;;;;5.28;0.65;;;1.10;76.90;;;;;;5065035;28;20043;-66
2022/04/03 06:48:16;;;;;;;1.30;0.47;;;1.30;76.80;;;;;;5045316;28;20040;-66
2022/04/03 06:50:42;;;;;;;3.00;0.50;;;1.40;77.10;;;;;;5034436;28;20109;-66
2022/04/03 06:53:08;;;;;;;3.40;0.90;;;1.60;77.20;;;;;;5044462;28;20076;-66
2022/04/03 06:55:35;;;;;;;1.15;0.60;;;1.80;77.30;;;;;;5040694;28;20083;-66
2022/04/03 06:58:01;;;;;;;1.85;0.55;;;2.00;77.40;;;;;;5060360;28;20047;-67
2022/04/03 07:00:27;;;;;;;3.25;1.02;;;2.30;76.70;;;;;;5055481;28;20114;-66
2022/04/03 07:02:53;;;;;;;2.33;0.40;;;2.50;76.40;;;;;;5063546;28;20081;-66
2022/04/03 07:05:20;;;;;;;4.65;0.50;;;2.80;76.30;;;;;;5055487;28;20040;-66
2022/04/03 07:07:45;;;;;;;2.80;0.57;;;3.20;76.20;;;;;;5044681;28;20052;-66
2022/04/03 07:10:11;;;;;;;3.83;0.53;;;3.50;76.30;;;;;;5047671;28;20049;-66
2022/04/03 07:12:38;;;;;;;2.57;0.40;;;3.80;74.90;;;;;;5062446;28;20371;-66
2022/04/03 07:15:05;;;;;;;4.63;0.40;;;4.00;74.10;;;;;;5056815;28;20772;-67
2022/04/03 07:17:30;;;;;;;4.50;0.57;;;4.10;73.70;;;;;;5049982;28;20037;-67
2022/04/03 07:19:56;;;;;;;1.47;0.43;;;4.20;73.50;;;;;;5056311;28;20048;-67
2022/04/03 07:22:22;;;;;;;2.87;0.37;;;4.30;73.40;;;;;;5061016;28;20153;-66
2022/04/03 07:24:48;;;;;;;1.53;0.50;;;4.40;73.40;;;;;;5035008;28;20052;-67
2022/04/03 07:27:13;;;;;;;2.20;0.47;;;4.40;73.40;;;;;;5052950;28;20044;-67
2022/04/03 07:29:39;;;;;;;3.70;0.60;;;4.50;73.20;;;;;;5053396;28;20493;-66
2022/04/03 07:32:05;;;;;;;2.30;0.50;;;4.60;73.40;;;;;;5038818;28;20090;-66
2022/04/03 07:34:31;;;;;;;1.73;0.70;;;4.90;73.70;;;;;;5035643;28;20489;-66
2022/04/03 07:36:57;;;;;;;4.03;0.50;;;5.20;73.60;;;;;;5026455;28;20045;-66
2022/04/03 07:39:23;;;;;;;4.53;0.60;;;5.30;72.20;;;;;;5035446;28;20516;-66
2022/04/03 07:41:50;;;;;;;3.55;0.50;;;5.20;71.30;;;;;;5040470;28;20078;-68
2022/04/03 07:44:16;;;;;;;1.88;0.50;;;5.10;71.30;;;;;;5037361;28;20123;-66
2022/04/03 07:46:42;;;;;;;2.17;0.50;;;5.10;71.10;;;;;;5035262;28;20136;-66
2022/04/03 07:49:08;;;;;;;4.40;0.60;;;5.10;70.80;;;;;;5037773;28;20296;-66
2022/04/03 07:51:34;;;;;;;1.92;0.57;;;5.10;70.90;;;;;;5039582;28;20072;-66
2022/04/03 07:54:00;;;;;;;1.98;0.50;;;5.10;70.90;;;;;;5030067;28;20451;-66
2022/04/03 07:56:26;;;;;;;2.67;0.95;;;5.20;70.90;;;;;;5052040;28;20051;-66
2022/04/03 07:58:52;;;;;;;3.33;0.73;;;5.20;70.50;;;;;;5048715;28;20037;-66
2022/04/03 08:01:17;;;;;;;2.03;0.47;;;5.10;70.20;;;;;;5032781;28;20349;-66
2022/04/03 08:03:43;;;;;;;2.67;0.60;;;5.10;70.30;;;;;;5032306;28;20032;-66
2022/04/03 08:06:09;;;;;;;4.20;0.90;;;5.10;70.40;;;;;;5029096;28;20068;-66
2022/04/03 08:08:35;;;;;;;4.55;1.35;;;5.30;70.30;;;;;;5031745;28;20128;-66
2022/04/03 08:11:01;;;;;;;3.40;0.83;;;5.40;70.10;;;;;;5036847;28;20127;-66
2022/04/03 08:13:27;;;;;;;4.17;0.50;;;5.50;69.40;;;;;;5045261;28;20563;-66
2022/04/03 08:15:52;;;;;;;1.03;0.30;;;5.50;68.90;;;;;;5048922;28;20072;-66
2022/04/03 08:18:19;;;;;;;0.63;0.30;;;5.50;68.30;;;;;;5055300;28;20036;-66
2022/04/03 08:20:45;;;;;;;1.45;0.20;;;5.60;68.10;;;;;;5027480;28;20044;-66
2022/04/03 08:23:11;;;;;;;2.40;0.20;;;5.70;66.00;;;;;;5032672;28;20076;-66
2022/04/03 08:25:39;;;;;;;2.67;0.27;;;5.70;65.30;;;;;;5035947;28;20071;-66
2022/04/03 08:28:07;;;;;;;1.45;0.20;;;5.80;65.20;;;;;;5050274;28;20564;-66
2022/04/03 08:30:38;;;;;;;3.03;0.57;;;5.90;65.00;;;;;;5057858;28;20465;-66
2022/04/03 08:33:05;;;;;;;2.00;0.20;;;5.90;64.50;;;;;;5049368;28;20040;-66
2022/04/03 08:35:32;;;;;;;1.80;0.40;;;6.00;64.10;;;;;;5045370;28;20052;-66
2022/04/03 08:37:59;;;;;;;2.20;0.40;;;6.00;63.70;;;;;;5036702;28;20277;-66
2022/04/03 08:40:26;;;;;;;2.60;0.60;;;6.00;64.10;;;;;;5051055;28;20463;-66
2022/04/03 08:42:54;;;;;;;2.92;0.43;;;6.10;65.20;;;;;;5032499;28;20485;-66
2022/04/03 08:45:22;;;;;;;1.98;0.47;;;6.10;65.30;;;;;;5021334;28;20579;-66
2022/04/03 08:47:55;;;;;;;2.55;0.50;;;6.00;64.70;;;;;;5038282;28;20492;-66
2022/04/03 08:50:31;;;;;;;3.13;0.30;;;5.90;65.00;;;;;;5027667;28;20040;-66
2022/04/03 08:52:59;;;;;;;1.60;0.30;;;6.00;65.50;;;;;;5054117;28;20052;-66
2022/04/03 08:55:25;;;;;;;1.40;0.20;;;6.10;65.10;;;;;;5059047;28;20075;-66
2022/04/03 08:57:51;;;;;;;1.23;0.20;;;6.00;64.10;;;;;;5056808;28;20097;-66
2022/04/03 09:00:18;;;;;;;2.38;0.40;;;5.90;64.50;;;;;;5049423;28;20127;-66
2022/04/03 09:02:47;;;;;;;1.73;0.32;;;5.90;65.30;;;;;;5052613;28;20043;-66
2022/04/03 09:05:17;;;;;;;1.27;0.40;;;6.00;65.40;;;;;;5051560;28;20123;-66
2022/04/03 09:07:43;;;;;;;4.57;0.50;;;6.20;64.80;;;;;;5054474;28;20041;-66
2022/04/03 09:10:14;;;;;;;2.15;0.30;;;6.50;64.60;;;;;;5050813;28;20040;-67
2022/04/03 09:12:47;;;;;;;2.78;0.40;;;6.80;64.40;;;;;;5058587;28;20127;-67
2022/04/03 09:15:16;;;;;;;2.15;0.40;;;7.10;63.30;;;;;;5064408;28;20035;-67
2022/04/03 09:17:44;;;;;;;1.58;0.35;;;7.00;61.60;;;;;;5054677;28;20036;-67
2022/04/03 09:20:14;;;;;;;2.17;0.40;;;6.70;61.40;;;;;;5041412;28;20052;-67
2022/04/03 09:22:43;;;;;;;1.70;0.40;;;6.60;62.30;;;;;;5049827;28;20101;-67
2022/04/03 09:25:11;;;;;;;2.05;0.40;;;6.50;62.20;;;;;;5063037;28;20048;-67
2022/04/03 09:27:50;;;;;;;2.60;0.50;;;6.60;62.60;;;;;;5056890;28;20094;-67
2022/04/03 09:30:17;;;;;;;2.80;0.70;;;6.80;62.50;;;;;;5058970;28;20741;-67
2022/04/03 09:32:52;;;;;;;3.97;0.43;;;7.00;62.10;;;;;;5058852;28;20488;-67
2022/04/03 09:35:19;;;;;;;1.85;0.40;;;7.30;61.30;;;;;;5060949;28;20447;-67
2022/04/03 09:38:04;;;;;;;1.30;0.40;;;7.50;60.20;;;;;;5042500;28;20036;-67
2022/04/03 09:40:30;;;;;;;2.42;0.52;;;7.50;59.40;;;;;;5047382;28;20048;-67
2022/04/03 09:43:15;;;;;;;0.73;0.30;;;7.50;59.30;;;;;;5047227;28;20045;-67
2022/04/03 09:45:45;;;;;;;2.10;0.45;;;7.60;59.70;;;;;;5048978;28;20102;-67
2022/04/03 09:48:31;;;;;;;2.75;0.40;;;7.70;58.90;;;;;;5052006;28;20105;-67
2022/04/03 09:50:57;;;;;;;;;;;7.70;58.90;;;;;;5055706;28;20109;-67
2022/04/03 09:53:23;;;;;;;2.25;0.32;;;7.70;58.30;;;;;;5051430;28;19916;-67
2022/04/03 09:55:49;;;;;;;2.50;0.47;;;7.90;58.60;;;;;;5046305;28;20139;-67
2022/04/03 09:58:16;;;;;;;1.63;0.20;;;8.10;58.70;;;;;;5037553;28;20044;-67
2022/04/03 10:00:42;;;;;;;1.70;0.20;;;8.30;57.80;;;;;;5059299;28;20044;-67
2022/04/03 10:03:12;;;;;;;2.65;0.50;;;8.30;56.80;;;;;;5057346;28;20535;-67
2022/04/03 10:05:39;;;;;;;4.20;0.50;;;8.40;57.30;;;;;;5037083;28;20127;-67
2022/04/03 10:08:06;;;;;;;1.40;0.20;;;8.60;57.30;;;;;;5064244;28;20048;-67
2022/04/03 10:10:34;;;;;;;2.70;0.43;;;8.80;56.00;;;;;;5051685;28;20043;-67
2022/04/03 10:13:01;;;;;;;4.32;0.50;;;8.90;56.00;;;;;;5034133;28;20036;-67
2022/04/03 10:15:29;;;;;;;2.67;0.40;;;8.90;54.60;;;;;;5058273;28;20079;-67
2022/04/03 10:17:56;;;;;;;4.10;0.40;;;8.90;54.60;;;;;;5060443;28;20044;-67
2022/04/03 10:20:28;;;;;;;2.17;0.30;;;9.10;55.20;;;;;;5038206;28;20054;-67
2022/04/03 10:23:03;;;;;;;3.65;0.40;;;9.20;54.50;;;;;;5050780;28;20054;-67
2022/04/03 10:25:35;;;;;;;1.85;0.30;;;9.30;54.50;;;;;;5050601;28;20072;-67
2022/04/03 10:28:05;;;;;;;3.35;0.70;;;8.90;52.20;;;;;;5039534;28;20460;-67
2022/04/03 10:30:44;;;;;;;2.70;0.38;;;8.60;54.40;;;;;;5046116;28;20079;-67
2022/04/03 10:33:21;;;;;;;3.97;0.30;;;8.80;55.00;;;;;;5063244;28;20032;-67
2022/04/03 10:36:07;;;;;;;3.78;1.30;;;9.20;55.80;;;;;;5062658;28;20056;-67
2022/04/03 10:38:55;;;;;;;3.38;0.50;;;9.50;55.50;;;;;;5030697;28;20039;-67
2022/04/03 10:41:28;;;;;;;1.85;0.28;;;9.30;54.70;;;;;;5033629;28;20044;-67
2022/04/03 10:44:22;;;;;;;2.05;0.30;;;8.90;55.30;;;;;;5043181;28;20059;-68
2022/04/03 10:47:03;;;;;;;2.05;0.40;;;8.90;55.10;;;;;;5056586;28;20583;-67
2022/04/03 10:49:57;;;;;;;0.80;0.30;;;9.10;53.90;;;;;;5060340;28;20488;-67
2022/04/03 10:52:43;;;;;;;2.65;0.55;;;9.30;53.70;;;;;;5058196;28;20048;-67
2022/04/03 10:55:23;;;;;;;2.47;0.40;;;9.00;53.30;;;;;;5040340;28;20040;-67
2022/04/03 10:57:54;;;;;;;1.55;0.38;;;8.60;53.00;;;;;;5057101;28;20505;-67
2022/04/03 11:00:20;;;;;;;2.75;0.30;;;8.20;53.90;;;;;;5041479;28;20464;-67
2022/04/03 11:02:57;;;;;;;1.07;0.20;;;8.20;55.20;;;;;;5057209;28;20048;-67
2022/04/03 11:05:32;;;;;;;2.28;0.70;;;8.70;53.90;;;;;;5049930;28;20052;-67
2022/04/03 11:08:00;;;;;;;0.75;0.30;;;9.00;52.80;;;;;;5054323;28;20591;-67
2022/04/03 11:11:08;;;;;;;4.13;0.40;;;9.40;53.90;;;;;;5049334;28;20044;-67
2022/04/03 11:13:34;;;;;;;3.15;0.30;;;9.80;52.70;;;;;;4948716;28;20041;-67
2022/04/03 11:16:08;;;;;;;6.57;0.57;;;10.00;53.10;;;;;;4963707;28;20042;-67
2022/04/03 11:18:41;;;;;;;2.20;0.57;;;10.20;51.70;;;;;;5007079;28;20048;-67
2022/04/03 11:21:11;;;;;;;3.20;0.32;;;10.30;51.50;;;;;;5053508;28;20102;-67
2022/04/03 11:23:44;;;;;;;1.98;0.35;;;10.60;50.70;;;;;;5057647;28;20132;-67
2022/04/03 11:26:10;;;;;;;0.68;0.20;;;10.60;50.00;;;;;;5051968;28;20097;-67
2022/04/03 11:28:36;;;;;;;2.37;0.37;;;10.30;49.50;;;;;;5053159;28;20037;-67
2022/04/03 11:31:04;;;;;;;0.93;0.30;;;9.70;49.20;;;;;;5047936;28;20306;-67
2022/04/03 11:33:30;;;;;;;2.25;0.30;;;9.30;50.50;;;;;;5048406;28;20059;-67
2022/04/03 11:36:06;;;;;;;3.30;0.30;;;9.30;51.50;;;;;;5031918;28;20040;-67
2022/04/03 11:38:50;;;;;;;1.30;0.17;;;9.40;52.20;;;;;;5034937;28;20040;-67
2022/04/03 11:41:22;;;;;;;2.63;0.20;;;9.10;51.70;;;;;;5039658;28;20402;-67
2022/04/03 11:44:00;;;;;;;1.52;0.38;;;8.60;52.50;;;;;;5056940;28;20040;-67
2022/04/03 11:46:30;;;;;;;2.92;0.30;;;8.30;53.40;;;;;;5054640;28;20508;-67
2022/04/03 11:48:56;;;;;;;1.40;0.20;;;8.30;54.20;;;;;;5030954;28;20043;-67
2022/04/03 11:51:23;;;;;;;3.25;0.20;;;8.50;54.00;;;;;;5065674;28;20139;-67
2022/04/03 11:54:01;;;;;;;1.63;0.38;;;8.80;53.10;;;;;;5031944;28;20044;-67
2022/04/03 11:56:31;;;;;;;4.40;0.30;;;9.00;52.60;;;;;;5060807;28;20036;-67
2022/04/03 11:58:57;;;;;;;1.77;0.20;;;9.00;51.90;;;;;;5051096;28;20040;-67
2022/04/03 12:01:26;;;;;;;1.50;0.20;;;8.80;51.90;;;;;;5059479;28;20050;-67
2022/04/03 12:04:08;;;;;;;3.08;0.30;;;8.60;52.20;;;;;;5051885;28;20040;-67
2022/04/03 12:06:34;;;;;;;1.25;0.30;;;8.80;53.10;;;;;;5039376;28;20049;-67
2022/04/03 12:09:05;;;;;;;1.90;0.20;;;9.20;52.50;;;;;;5056875;28;20043;-67
2022/04/03 12:11:31;;;;;;;1.27;0.20;;;9.50;51.10;;;;;;5055728;28;20704;-67
2022/04/03 12:13:59;;;;;;;1.23;0.20;;;9.10;51.00;;;;;;5056176;28;20131;-67
2022/04/03 12:16:32;;;;;;;4.05;0.30;;;9.10;51.70;;;;;;5057164;28;20370;-67
2022/04/03 12:18:59;;;;;;;1.02;0.20;;;9.30;51.30;;;;;;5057608;28;20531;-67
2022/04/03 12:21:41;;;;;;;1.30;0.20;;;9.70;51.40;;;;;;5050599;28;20155;-67
2022/04/03 12:24:14;;;;;;;1.00;0.25;;;10.20;51.20;;;;;;5044413;28;20055;-68
2022/04/03 12:26:44;;;;;;;2.50;0.20;;;10.50;50.80;;;;;;5054739;28;20049;-67
2022/04/03 12:29:10;;;;;;;0.77;0.30;;;10.70;49.60;;;;;;5054118;28;20040;-67
2022/04/03 12:31:36;;;;;;;0.77;0.20;;;10.80;48.90;;;;;;5066887;28;20539;-67
2022/04/03 12:34:10;;;;;;;2.63;0.40;;;10.50;48.10;;;;;;5067352;28;20072;-67
2022/04/03 12:36:48;;;;;;;2.47;0.30;;;10.10;49.20;;;;;;5041227;28;20290;-67
2022/04/03 12:39:32;;;;;;;4.10;0.30;;;9.70;49.60;;;;;;5060044;28;20373;-67
2022/04/03 12:42:16;;;;;;;0.90;0.32;;;9.20;50.20;;;;;;5056284;28;20134;-67
2022/04/03 12:44:49;;;;;;;1.10;0.20;;;9.10;51.20;;;;;;5055652;28;20069;-67
2022/04/03 12:47:29;;;;;;;1.88;0.30;;;9.30;50.80;;;;;;5053245;28;20141;-67
2022/04/03 12:50:10;;;;;;;1.25;0.22;;;9.60;50.20;;;;;;5047187;28;20044;-67
2022/04/03 12:53:00;;;;;;;0.85;0.30;;;9.40;50.90;;;;;;5057610;28;20056;-67
2022/04/03 12:55:26;;;;;;;0.65;0.20;;;9.10;51.10;;;;;;5064630;28;20409;-67